首页
METAR-TAF:

METAR-TAF

机场 :

金奈, 印度

金奈国际机场

纬度: 13-00N, 经度: 080-11E, 海拔: 10米

当前天气观测

该预报发布于22分钟前的22:00 UTC
风速6节,风向南转西南
温度 29°C
湿度 84%
气压 1006 hPa
能見度: 6000
少量云层高于2000英尺

METAR: VOMM 252200Z 21006KT 6000 FEW020 29/26 Q1006 NOSIG

时间: 03:52 (22:22 UTC)

预报

该预报发布于5小时和22分钟前的17:00 UTC
预报有效从25日的 18点(UTC)到 26日的 24点(UTC)
风速5节,风向南转西南
能見度: 6000
散云层高于2000英尺
散云层高于10000英尺
短暂存在
从 26日的 06点(UTC)到 26日的 12点(UTC)
散云层高于2000英尺
多云层高于10000英尺
成为
从 26日的 08点(UTC)到 26日的 09点(UTC)
成为
从 26日的 18点(UTC)到 26日的 19点(UTC)
风速5节,风向南转西南

TAF: VOMM 251700Z 2518/2624 20005KT 6000 SCT020 SCT100 TEMPO 2606/2612 SCT020 FEWO25CB BKN100 BECMG 2608/2609 14010K BECMG 2618/2619 20005KT

超过4000个机场的气象观测和天气预报(METAR&TAF报告)。

可查询的气象台以黄色和红色小点在地图上表示。

将鼠标移到小点上方,可查看气象台名称。

然后点击查看天气观测和预报。

如需切换地图:点击带黑十字的绿色按钮放大地图;点击带横线的绿色按钮缩小地图;或者点击绿色箭头查看邻近地区的地图。


METAR-TAF: